sensor_id;sensor_type;location;lat;lon;timestamp;P1;durP1;ratioP1;P2;durP2;ratioP2
3647;SDS011;1840;48.892;15.312;2023-05-14T00:01:44;53.67;;;36.20;;
3647;SDS011;1840;48.892;15.312;2023-05-14T00:04:12;57.37;;;35.80;;
3647;SDS011;1840;48.892;15.312;2023-05-14T00:06:40;53.37;;;36.03;;
3647;SDS011;1840;48.892;15.312;2023-05-14T00:09:10;59.83;;;35.70;;
3647;SDS011;1840;48.892;15.312;2023-05-14T00:11:38;58.17;;;37.63;;
3647;SDS011;1840;48.892;15.312;2023-05-14T00:14:06;57.43;;;35.67;;
3647;SDS011;1840;48.892;15.312;2023-05-14T00:16:34;52.70;;;34.23;;
3647;SDS011;1840;48.892;15.312;2023-05-14T00:19:02;57.13;;;34.90;;
3647;SDS011;1840;48.892;15.312;2023-05-14T00:21:30;50.63;;;34.67;;
3647;SDS011;1840;48.892;15.312;2023-05-14T00:23:58;47.35;;;32.17;;
3647;SDS011;1840;48.892;15.312;2023-05-14T00:26:28;51.23;;;31.70;;
3647;SDS011;1840;48.892;15.312;2023-05-14T00:28:56;42.73;;;30.40;;
3647;SDS011;1840;48.892;15.312;2023-05-14T00:31:24;45.00;;;32.00;;
3647;SDS011;1840;48.892;15.312;2023-05-14T00:33:52;50.80;;;32.20;;
3647;SDS011;1840;48.892;15.312;2023-05-14T00:36:20;50.63;;;32.47;;
3647;SDS011;1840;48.892;15.312;2023-05-14T00:38:48;45.97;;;31.87;;
3647;SDS011;1840;48.892;15.312;2023-05-14T00:41:16;48.40;;;32.73;;
3647;SDS011;1840;48.892;15.312;2023-05-14T00:43:45;46.33;;;30.97;;
3647;SDS011;1840;48.892;15.312;2023-05-14T00:46:13;49.50;;;31.60;;
3647;SDS011;1840;48.892;15.312;2023-05-14T00:48:43;45.40;;;31.80;;
3647;SDS011;1840;48.892;15.312;2023-05-14T00:51:11;50.80;;;30.40;;
3647;SDS011;1840;48.892;15.312;2023-05-14T00:53:39;47.17;;;31.87;;
3647;SDS011;1840;48.892;15.312;2023-05-14T00:56:07;42.17;;;29.20;;
3647;SDS011;1840;48.892;15.312;2023-05-14T00:58:36;43.67;;;29.83;;
3647;SDS011;1840;48.892;15.312;2023-05-14T01:01:06;42.27;;;28.53;;
3647;SDS011;1840;48.892;15.312;2023-05-14T01:03:35;43.40;;;30.07;;
3647;SDS011;1840;48.892;15.312;2023-05-14T01:06:05;55.03;;;31.60;;
3647;SDS011;1840;48.892;15.312;2023-05-14T01:08:39;42.77;;;29.70;;
3647;SDS011;1840;48.892;15.312;2023-05-14T01:11:19;43.60;;;29.07;;
3647;SDS011;1840;48.892;15.312;2023-05-14T01:13:53;39.90;;;26.73;;
3647;SDS011;1840;48.892;15.312;2023-05-14T01:16:29;40.53;;;28.07;;
3647;SDS011;1840;48.892;15.312;2023-05-14T01:18:59;38.95;;;26.95;;
3647;SDS011;1840;48.892;15.312;2023-05-14T01:21:37;38.50;;;27.20;;
3647;SDS011;1840;48.892;15.312;2023-05-14T01:24:06;42.00;;;27.90;;
3647;SDS011;1840;48.892;15.312;2023-05-14T01:26:34;39.67;;;27.03;;
3647;SDS011;1840;48.892;15.312;2023-05-14T01:29:05;37.80;;;26.70;;
3647;SDS011;1840;48.892;15.312;2023-05-14T01:31:40;39.00;;;27.30;;
3647;SDS011;1840;48.892;15.312;2023-05-14T01:34:11;48.40;;;27.20;;
3647;SDS011;1840;48.892;15.312;2023-05-14T01:36:42;42.67;;;25.43;;
3647;SDS011;1840;48.892;15.312;2023-05-14T01:39:11;43.83;;;24.73;;
3647;SDS011;1840;48.892;15.312;2023-05-14T01:41:40;33.33;;;25.20;;
3647;SDS011;1840;48.892;15.312;2023-05-14T01:44:10;40.07;;;26.53;;
3647;SDS011;1840;48.892;15.312;2023-05-14T01:46:38;33.93;;;25.53;;
3647;SDS011;1840;48.892;15.312;2023-05-14T01:49:06;33.57;;;24.40;;
3647;SDS011;1840;48.892;15.312;2023-05-14T01:51:34;37.40;;;24.93;;
3647;SDS011;1840;48.892;15.312;2023-05-14T01:54:04;37.90;;;25.50;;
3647;SDS011;1840;48.892;15.312;2023-05-14T01:56:32;34.60;;;23.70;;
3647;SDS011;1840;48.892;15.312;2023-05-14T01:59:00;32.33;;;24.50;;
3647;SDS011;1840;48.892;15.312;2023-05-14T02:01:28;36.57;;;26.03;;
3647;SDS011;1840;48.892;15.312;2023-05-14T02:03:57;40.60;;;23.97;;
3647;SDS011;1840;48.892;15.312;2023-05-14T02:06:25;42.90;;;24.23;;
3647;SDS011;1840;48.892;15.312;2023-05-14T02:08:53;35.20;;;25.27;;
3647;SDS011;1840;48.892;15.312;2023-05-14T02:11:22;37.20;;;25.10;;
3647;SDS011;1840;48.892;15.312;2023-05-14T02:13:51;35.90;;;23.33;;
3647;SDS011;1840;48.892;15.312;2023-05-14T02:16:19;32.23;;;23.67;;
3647;SDS011;1840;48.892;15.312;2023-05-14T02:18:47;39.67;;;24.43;;
3647;SDS011;1840;48.892;15.312;2023-05-14T02:21:15;39.73;;;25.40;;
3647;SDS011;1840;48.892;15.312;2023-05-14T02:23:43;41.97;;;24.53;;
3647;SDS011;1840;48.892;15.312;2023-05-14T02:26:11;36.50;;;23.90;;
3647;SDS011;1840;48.892;15.312;2023-05-14T02:28:40;34.80;;;22.80;;
3647;SDS011;1840;48.892;15.312;2023-05-14T02:31:08;30.67;;;22.63;;
3647;SDS011;1840;48.892;15.312;2023-05-14T02:33:36;39.30;;;22.77;;
3647;SDS011;1840;48.892;15.312;2023-05-14T02:36:04;40.00;;;22.00;;
3647;SDS011;1840;48.892;15.312;2023-05-14T02:38:32;32.43;;;22.50;;
3647;SDS011;1840;48.892;15.312;2023-05-14T02:41:01;33.90;;;22.33;;
3647;SDS011;1840;48.892;15.312;2023-05-14T02:43:29;37.08;;;22.60;;
3647;SDS011;1840;48.892;15.312;2023-05-14T02:45:58;32.07;;;21.40;;
3647;SDS011;1840;48.892;15.312;2023-05-14T02:48:26;32.77;;;21.97;;
3647;SDS011;1840;48.892;15.312;2023-05-14T02:50:54;31.43;;;22.87;;
3647;SDS011;1840;48.892;15.312;2023-05-14T02:53:22;30.67;;;20.98;;
3647;SDS011;1840;48.892;15.312;2023-05-14T02:55:50;33.03;;;23.50;;
3647;SDS011;1840;48.892;15.312;2023-05-14T02:58:18;30.23;;;20.37;;
3647;SDS011;1840;48.892;15.312;2023-05-14T03:00:54;39.73;;;22.93;;
3647;SDS011;1840;48.892;15.312;2023-05-14T03:03:24;34.13;;;23.17;;
3647;SDS011;1840;48.892;15.312;2023-05-14T03:05:52;33.17;;;23.00;;
3647;SDS011;1840;48.892;15.312;2023-05-14T03:08:20;32.53;;;24.03;;
3647;SDS011;1840;48.892;15.312;2023-05-14T03:10:48;29.90;;;21.77;;
3647;SDS011;1840;48.892;15.312;2023-05-14T03:13:16;33.80;;;24.00;;
3647;SDS011;1840;48.892;15.312;2023-05-14T03:15:46;36.33;;;23.47;;
3647;SDS011;1840;48.892;15.312;2023-05-14T03:18:14;34.37;;;24.40;;
3647;SDS011;1840;48.892;15.312;2023-05-14T03:20:43;34.53;;;24.33;;
3647;SDS011;1840;48.892;15.312;2023-05-14T03:23:11;32.57;;;24.00;;
3647;SDS011;1840;48.892;15.312;2023-05-14T03:25:40;33.60;;;22.73;;
3647;SDS011;1840;48.892;15.312;2023-05-14T03:28:08;34.37;;;23.73;;
3647;SDS011;1840;48.892;15.312;2023-05-14T03:30:36;36.35;;;24.48;;
3647;SDS011;1840;48.892;15.312;2023-05-14T03:33:04;32.60;;;23.00;;
3647;SDS011;1840;48.892;15.312;2023-05-14T03:35:32;38.13;;;23.73;;
3647;SDS011;1840;48.892;15.312;2023-05-14T03:38:01;34.60;;;24.10;;
3647;SDS011;1840;48.892;15.312;2023-05-14T03:40:29;41.50;;;26.17;;
3647;SDS011;1840;48.892;15.312;2023-05-14T03:42:57;34.67;;;24.20;;
3647;SDS011;1840;48.892;15.312;2023-05-14T03:45:25;33.87;;;23.43;;
3647;SDS011;1840;48.892;15.312;2023-05-14T03:47:55;36.10;;;23.23;;
3647;SDS011;1840;48.892;15.312;2023-05-14T03:50:23;40.83;;;24.23;;
3647;SDS011;1840;48.892;15.312;2023-05-14T03:52:52;37.40;;;25.40;;
3647;SDS011;1840;48.892;15.312;2023-05-14T03:55:21;33.13;;;24.10;;
3647;SDS011;1840;48.892;15.312;2023-05-14T03:57:49;33.83;;;22.80;;
3647;SDS011;1840;48.892;15.312;2023-05-14T04:00:17;48.72;;;25.10;;
3647;SDS011;1840;48.892;15.312;2023-05-14T04:02:46;36.73;;;24.90;;
3647;SDS011;1840;48.892;15.312;2023-05-14T04:05:15;36.60;;;24.47;;
3647;SDS011;1840;48.892;15.312;2023-05-14T04:07:42;38.10;;;25.40;;
3647;SDS011;1840;48.892;15.312;2023-05-14T04:10:11;34.53;;;22.63;;
3647;SDS011;1840;48.892;15.312;2023-05-14T04:12:41;36.93;;;26.37;;
3647;SDS011;1840;48.892;15.312;2023-05-14T04:15:09;31.73;;;22.05;;
3647;SDS011;1840;48.892;15.312;2023-05-14T04:17:37;32.23;;;23.20;;
3647;SDS011;1840;48.892;15.312;2023-05-14T04:20:06;36.93;;;23.50;;
3647;SDS011;1840;48.892;15.312;2023-05-14T04:22:35;35.70;;;24.70;;
3647;SDS011;1840;48.892;15.312;2023-05-14T04:25:03;27.53;;;20.30;;
3647;SDS011;1840;48.892;15.312;2023-05-14T04:27:32;30.08;;;20.73;;
3647;SDS011;1840;48.892;15.312;2023-05-14T04:30:01;32.47;;;22.33;;
3647;SDS011;1840;48.892;15.312;2023-05-14T04:32:30;30.50;;;21.30;;
3647;SDS011;1840;48.892;15.312;2023-05-14T04:34:58;33.13;;;21.80;;
3647;SDS011;1840;48.892;15.312;2023-05-14T04:37:26;30.63;;;20.50;;
3647;SDS011;1840;48.892;15.312;2023-05-14T04:39:54;29.80;;;21.70;;
3647;SDS011;1840;48.892;15.312;2023-05-14T04:42:22;32.10;;;20.60;;
3647;SDS011;1840;48.892;15.312;2023-05-14T04:44:50;32.00;;;20.70;;
3647;SDS011;1840;48.892;15.312;2023-05-14T04:47:20;31.80;;;21.50;;
3647;SDS011;1840;48.892;15.312;2023-05-14T04:49:48;28.63;;;20.47;;
3647;SDS011;1840;48.892;15.312;2023-05-14T04:52:16;31.27;;;21.30;;
3647;SDS011;1840;48.892;15.312;2023-05-14T04:54:44;25.87;;;18.63;;
3647;SDS011;1840;48.892;15.312;2023-05-14T04:57:12;29.20;;;20.70;;
3647;SDS011;1840;48.892;15.312;2023-05-14T04:59:40;28.13;;;21.30;;
3647;SDS011;1840;48.892;15.312;2023-05-14T05:02:08;36.20;;;21.70;;
3647;SDS011;1840;48.892;15.312;2023-05-14T05:04:38;29.23;;;20.07;;
3647;SDS011;1840;48.892;15.312;2023-05-14T05:07:06;24.83;;;18.77;;
3647;SDS011;1840;48.892;15.312;2023-05-14T05:09:34;28.33;;;20.13;;
3647;SDS011;1840;48.892;15.312;2023-05-14T05:12:02;27.53;;;18.80;;
3647;SDS011;1840;48.892;15.312;2023-05-14T05:14:31;23.67;;;18.03;;
3647;SDS011;1840;48.892;15.312;2023-05-14T05:16:59;32.63;;;19.87;;
3647;SDS011;1840;48.892;15.312;2023-05-14T05:19:27;27.23;;;19.83;;
3647;SDS011;1840;48.892;15.312;2023-05-14T05:22:10;25.17;;;16.97;;
3647;SDS011;1840;48.892;15.312;2023-05-14T05:24:38;25.70;;;19.00;;
3647;SDS011;1840;48.892;15.312;2023-05-14T05:27:06;27.03;;;19.43;;
3647;SDS011;1840;48.892;15.312;2023-05-14T05:29:35;24.93;;;18.10;;
3647;SDS011;1840;48.892;15.312;2023-05-14T05:32:03;30.37;;;17.77;;
3647;SDS011;1840;48.892;15.312;2023-05-14T05:34:32;22.30;;;17.40;;
3647;SDS011;1840;48.892;15.312;2023-05-14T05:37:00;26.17;;;18.13;;
3647;SDS011;1840;48.892;15.312;2023-05-14T05:39:30;21.77;;;16.20;;
3647;SDS011;1840;48.892;15.312;2023-05-14T05:42:00;24.60;;;16.87;;
3647;SDS011;1840;48.892;15.312;2023-05-14T05:44:28;21.27;;;15.00;;
3647;SDS011;1840;48.892;15.312;2023-05-14T05:46:57;20.43;;;15.50;;
3647;SDS011;1840;48.892;15.312;2023-05-14T05:49:25;20.10;;;14.10;;
3647;SDS011;1840;48.892;15.312;2023-05-14T05:51:53;20.42;;;14.02;;
3647;SDS011;1840;48.892;15.312;2023-05-14T05:54:21;20.80;;;14.13;;
3647;SDS011;1840;48.892;15.312;2023-05-14T05:56:51;18.30;;;13.67;;
3647;SDS011;1840;48.892;15.312;2023-05-14T05:59:19;16.03;;;13.17;;
3647;SDS011;1840;48.892;15.312;2023-05-14T06:01:47;18.00;;;13.80;;
3647;SDS011;1840;48.892;15.312;2023-05-14T06:04:15;17.53;;;12.97;;
3647;SDS011;1840;48.892;15.312;2023-05-14T06:06:43;15.07;;;11.77;;
3647;SDS011;1840;48.892;15.312;2023-05-14T06:09:11;24.27;;;12.87;;
3647;SDS011;1840;48.892;15.312;2023-05-14T06:11:39;17.73;;;11.70;;
3647;SDS011;1840;48.892;15.312;2023-05-14T06:14:09;17.10;;;11.10;;
3647;SDS011;1840;48.892;15.312;2023-05-14T06:16:37;17.97;;;11.40;;
3647;SDS011;1840;48.892;15.312;2023-05-14T06:19:05;14.37;;;10.70;;
3647;SDS011;1840;48.892;15.312;2023-05-14T06:21:33;13.63;;;10.53;;
3647;SDS011;1840;48.892;15.312;2023-05-14T06:24:01;19.30;;;11.07;;
3647;SDS011;1840;48.892;15.312;2023-05-14T06:26:29;18.10;;;12.80;;
3647;SDS011;1840;48.892;15.312;2023-05-14T06:28:57;19.30;;;14.50;;
3647;SDS011;1840;48.892;15.312;2023-05-14T06:31:27;14.13;;;10.00;;
3647;SDS011;1840;48.892;15.312;2023-05-14T06:33:55;20.50;;;11.63;;
3647;SDS011;1840;48.892;15.312;2023-05-14T06:36:23;19.60;;;11.50;;
3647;SDS011;1840;48.892;15.312;2023-05-14T06:38:51;18.03;;;10.53;;
3647;SDS011;1840;48.892;15.312;2023-05-14T06:41:19;16.93;;;11.97;;
3647;SDS011;1840;48.892;15.312;2023-05-14T06:43:48;14.98;;;10.38;;
3647;SDS011;1840;48.892;15.312;2023-05-14T06:46:16;15.03;;;10.80;;
3647;SDS011;1840;48.892;15.312;2023-05-14T06:48:45;17.90;;;12.03;;
3647;SDS011;1840;48.892;15.312;2023-05-14T06:51:13;15.20;;;10.53;;
3647;SDS011;1840;48.892;15.312;2023-05-14T06:53:41;18.70;;;10.70;;
3647;SDS011;1840;48.892;15.312;2023-05-14T06:56:09;19.63;;;10.60;;
3647;SDS011;1840;48.892;15.312;2023-05-14T06:58:38;18.03;;;10.97;;
3647;SDS011;1840;48.892;15.312;2023-05-14T07:01:06;12.90;;;10.50;;
3647;SDS011;1840;48.892;15.312;2023-05-14T07:03:34;12.60;;;9.40;;
3647;SDS011;1840;48.892;15.312;2023-05-14T07:06:03;73.10;;;42.17;;
3647;SDS011;1840;48.892;15.312;2023-05-14T07:08:32;13.00;;;10.37;;
3647;SDS011;1840;48.892;15.312;2023-05-14T07:11:01;21.67;;;11.45;;
3647;SDS011;1840;48.892;15.312;2023-05-14T07:13:29;13.77;;;9.47;;
3647;SDS011;1840;48.892;15.312;2023-05-14T07:15:57;16.63;;;9.88;;
3647;SDS011;1840;48.892;15.312;2023-05-14T07:18:25;16.03;;;8.30;;
3647;SDS011;1840;48.892;15.312;2023-05-14T07:20:54;13.97;;;9.73;;
3647;SDS011;1840;48.892;15.312;2023-05-14T07:23:23;12.00;;;8.57;;
3647;SDS011;1840;48.892;15.312;2023-05-14T07:25:51;14.83;;;9.57;;
3647;SDS011;1840;48.892;15.312;2023-05-14T07:28:19;13.23;;;8.73;;
3647;SDS011;1840;48.892;15.312;2023-05-14T07:30:47;12.60;;;9.13;;
3647;SDS011;1840;48.892;15.312;2023-05-14T07:33:15;12.27;;;9.07;;
3647;SDS011;1840;48.892;15.312;2023-05-14T07:35:43;12.97;;;9.00;;
3647;SDS011;1840;48.892;15.312;2023-05-14T07:38:11;13.73;;;8.23;;
3647;SDS011;1840;48.892;15.312;2023-05-14T07:40:41;16.90;;;9.30;;
3647;SDS011;1840;48.892;15.312;2023-05-14T07:43:09;11.67;;;8.50;;
3647;SDS011;1840;48.892;15.312;2023-05-14T07:45:37;12.30;;;8.50;;
3647;SDS011;1840;48.892;15.312;2023-05-14T07:48:05;11.00;;;8.30;;
3647;SDS011;1840;48.892;15.312;2023-05-14T07:50:35;15.33;;;9.20;;
3647;SDS011;1840;48.892;15.312;2023-05-14T07:53:03;9.93;;;7.28;;
3647;SDS011;1840;48.892;15.312;2023-05-14T07:55:31;15.97;;;8.80;;
3647;SDS011;1840;48.892;15.312;2023-05-14T07:58:01;15.07;;;9.10;;
3647;SDS011;1840;48.892;15.312;2023-05-14T08:00:29;11.67;;;8.57;;
3647;SDS011;1840;48.892;15.312;2023-05-14T08:02:57;10.87;;;8.30;;
3647;SDS011;1840;48.892;15.312;2023-05-14T08:05:25;12.00;;;8.07;;
3647;SDS011;1840;48.892;15.312;2023-05-14T08:07:53;13.80;;;9.13;;
3647;SDS011;1840;48.892;15.312;2023-05-14T08:10:21;11.87;;;8.37;;
3647;SDS011;1840;48.892;15.312;2023-05-14T08:12:50;14.47;;;8.90;;
3647;SDS011;1840;48.892;15.312;2023-05-14T08:15:19;11.50;;;8.20;;
3647;SDS011;1840;48.892;15.312;2023-05-14T08:17:47;12.27;;;8.13;;
3647;SDS011;1840;48.892;15.312;2023-05-14T08:20:16;11.10;;;8.20;;
3647;SDS011;1840;48.892;15.312;2023-05-14T08:22:45;12.53;;;7.70;;
3647;SDS011;1840;48.892;15.312;2023-05-14T08:25:13;10.30;;;7.63;;
3647;SDS011;1840;48.892;15.312;2023-05-14T08:27:41;15.97;;;9.10;;
3647;SDS011;1840;48.892;15.312;2023-05-14T08:30:09;12.50;;;8.13;;
3647;SDS011;1840;48.892;15.312;2023-05-14T08:32:39;9.50;;;7.70;;
3647;SDS011;1840;48.892;15.312;2023-05-14T08:35:07;10.40;;;7.30;;
3647;SDS011;1840;48.892;15.312;2023-05-14T08:37:36;12.20;;;8.40;;
3647;SDS011;1840;48.892;15.312;2023-05-14T08:40:04;10.93;;;7.37;;
3647;SDS011;1840;48.892;15.312;2023-05-14T08:42:33;10.27;;;7.13;;
3647;SDS011;1840;48.892;15.312;2023-05-14T08:45:06;9.67;;;7.43;;
3647;SDS011;1840;48.892;15.312;2023-05-14T08:47:41;15.25;;;8.35;;
3647;SDS011;1840;48.892;15.312;2023-05-14T08:50:13;9.87;;;7.37;;
3647;SDS011;1840;48.892;15.312;2023-05-14T08:52:42;9.67;;;7.07;;
3647;SDS011;1840;48.892;15.312;2023-05-14T08:55:11;11.07;;;7.67;;
3647;SDS011;1840;48.892;15.312;2023-05-14T08:57:39;14.00;;;7.57;;
3647;SDS011;1840;48.892;15.312;2023-05-14T09:00:07;12.70;;;8.03;;
3647;SDS011;1840;48.892;15.312;2023-05-14T09:02:38;15.47;;;8.73;;
3647;SDS011;1840;48.892;15.312;2023-05-14T09:05:08;9.30;;;6.33;;
3647;SDS011;1840;48.892;15.312;2023-05-14T09:07:37;11.07;;;7.37;;
3647;SDS011;1840;48.892;15.312;2023-05-14T09:10:06;10.20;;;6.90;;
3647;SDS011;1840;48.892;15.312;2023-05-14T09:12:35;11.10;;;6.87;;
3647;SDS011;1840;48.892;15.312;2023-05-14T09:15:04;8.77;;;6.30;;
3647;SDS011;1840;48.892;15.312;2023-05-14T09:17:33;10.50;;;6.77;;
3647;SDS011;1840;48.892;15.312;2023-05-14T09:20:01;8.43;;;6.10;;
3647;SDS011;1840;48.892;15.312;2023-05-14T09:22:31;11.17;;;7.30;;
3647;SDS011;1840;48.892;15.312;2023-05-14T09:25:02;10.10;;;7.17;;
3647;SDS011;1840;48.892;15.312;2023-05-14T09:27:31;17.50;;;8.87;;
3647;SDS011;1840;48.892;15.312;2023-05-14T09:30:06;12.37;;;7.90;;
3647;SDS011;1840;48.892;15.312;2023-05-14T09:32:36;18.33;;;10.50;;
3647;SDS011;1840;48.892;15.312;2023-05-14T09:35:09;12.70;;;7.80;;
3647;SDS011;1840;48.892;15.312;2023-05-14T09:37:41;13.30;;;9.10;;
3647;SDS011;1840;48.892;15.312;2023-05-14T09:40:10;9.33;;;6.60;;
3647;SDS011;1840;48.892;15.312;2023-05-14T09:42:38;10.53;;;7.10;;
3647;SDS011;1840;48.892;15.312;2023-05-14T09:45:07;8.47;;;7.10;;
3647;SDS011;1840;48.892;15.312;2023-05-14T09:47:36;10.00;;;6.50;;
3647;SDS011;1840;48.892;15.312;2023-05-14T09:50:05;10.27;;;7.07;;
3647;SDS011;1840;48.892;15.312;2023-05-14T09:52:34;8.77;;;6.83;;
3647;SDS011;1840;48.892;15.312;2023-05-14T09:55:04;8.63;;;6.60;;
3647;SDS011;1840;48.892;15.312;2023-05-14T09:57:33;9.10;;;6.47;;
3647;SDS011;1840;48.892;15.312;2023-05-14T10:00:01;12.00;;;6.20;;
3647;SDS011;1840;48.892;15.312;2023-05-14T10:02:30;8.80;;;5.93;;
3647;SDS011;1840;48.892;15.312;2023-05-14T10:05:04;11.43;;;6.80;;
3647;SDS011;1840;48.892;15.312;2023-05-14T10:07:36;11.00;;;6.93;;
3647;SDS011;1840;48.892;15.312;2023-05-14T10:10:09;8.63;;;6.40;;
3647;SDS011;1840;48.892;15.312;2023-05-14T10:12:41;10.33;;;7.20;;
3647;SDS011;1840;48.892;15.312;2023-05-14T10:15:15;12.63;;;7.77;;
3647;SDS011;1840;48.892;15.312;2023-05-14T10:17:51;10.20;;;6.03;;
3647;SDS011;1840;48.892;15.312;2023-05-14T10:20:22;8.00;;;6.15;;
3647;SDS011;1840;48.892;15.312;2023-05-14T10:22:53;11.73;;;7.07;;
3647;SDS011;1840;48.892;15.312;2023-05-14T10:25:23;8.50;;;5.90;;
3647;SDS011;1840;48.892;15.312;2023-05-14T10:27:51;10.67;;;6.53;;
3647;SDS011;1840;48.892;15.312;2023-05-14T10:30:20;11.47;;;7.70;;
3647;SDS011;1840;48.892;15.312;2023-05-14T10:33:04;20.13;;;6.13;;
3647;SDS011;1840;48.892;15.312;2023-05-14T10:38:27;9.27;;;6.60;;
3647;SDS011;1840;48.892;15.312;2023-05-14T10:41:00;8.73;;;6.10;;
3647;SDS011;1840;48.892;15.312;2023-05-14T10:43:30;8.33;;;6.20;;
3647;SDS011;1840;48.892;15.312;2023-05-14T10:46:03;15.53;;;6.40;;
3647;SDS011;1840;48.892;15.312;2023-05-14T10:48:32;10.73;;;7.27;;
3647;SDS011;1840;48.892;15.312;2023-05-14T10:51:00;10.70;;;7.67;;
3647;SDS011;1840;48.892;15.312;2023-05-14T10:53:32;10.80;;;7.80;;
3647;SDS011;1840;48.892;15.312;2023-05-14T10:56:04;9.70;;;6.70;;
3647;SDS011;1840;48.892;15.312;2023-05-14T10:58:36;10.77;;;7.33;;
3647;SDS011;1840;48.892;15.312;2023-05-14T11:01:05;11.40;;;7.97;;
3647;SDS011;1840;48.892;15.312;2023-05-14T11:03:37;8.67;;;7.00;;
3647;SDS011;1840;48.892;15.312;2023-05-14T11:06:07;11.20;;;7.30;;
3647;SDS011;1840;48.892;15.312;2023-05-14T11:08:36;10.60;;;7.90;;
3647;SDS011;1840;48.892;15.312;2023-05-14T11:11:07;11.00;;;7.57;;
3647;SDS011;1840;48.892;15.312;2023-05-14T11:13:35;8.50;;;7.00;;
3647;SDS011;1840;48.892;15.312;2023-05-14T11:16:04;7.73;;;5.73;;
3647;SDS011;1840;48.892;15.312;2023-05-14T11:18:35;8.17;;;6.20;;
3647;SDS011;1840;48.892;15.312;2023-05-14T11:21:04;8.10;;;6.23;;
3647;SDS011;1840;48.892;15.312;2023-05-14T11:23:32;8.90;;;6.57;;
3647;SDS011;1840;48.892;15.312;2023-05-14T11:26:00;8.30;;;6.93;;
3647;SDS011;1840;48.892;15.312;2023-05-14T11:28:30;9.48;;;7.15;;
3647;SDS011;1840;48.892;15.312;2023-05-14T11:30:58;10.95;;;6.72;;
3647;SDS011;1840;48.892;15.312;2023-05-14T11:33:27;9.30;;;7.10;;
3647;SDS011;1840;48.892;15.312;2023-05-14T11:35:55;13.77;;;8.10;;
3647;SDS011;1840;48.892;15.312;2023-05-14T11:38:23;9.50;;;7.30;;
3647;SDS011;1840;48.892;15.312;2023-05-14T11:40:51;9.60;;;7.20;;
3647;SDS011;1840;48.892;15.312;2023-05-14T11:43:20;9.57;;;7.23;;
3647;SDS011;1840;48.892;15.312;2023-05-14T11:45:50;9.17;;;7.27;;
3647;SDS011;1840;48.892;15.312;2023-05-14T11:48:19;10.80;;;7.73;;
3647;SDS011;1840;48.892;15.312;2023-05-14T11:50:49;7.83;;;6.40;;
3647;SDS011;1840;48.892;15.312;2023-05-14T11:53:18;11.33;;;8.30;;
3647;SDS011;1840;48.892;15.312;2023-05-14T11:55:46;8.03;;;6.30;;
3647;SDS011;1840;48.892;15.312;2023-05-14T11:58:14;10.70;;;6.73;;
3647;SDS011;1840;48.892;15.312;2023-05-14T12:00:44;9.40;;;7.30;;
3647;SDS011;1840;48.892;15.312;2023-05-14T12:03:14;10.60;;;7.67;;
3647;SDS011;1840;48.892;15.312;2023-05-14T12:05:53;11.70;;;8.57;;
3647;SDS011;1840;48.892;15.312;2023-05-14T12:08:24;11.27;;;8.37;;
3647;SDS011;1840;48.892;15.312;2023-05-14T12:10:53;9.60;;;7.33;;
3647;SDS011;1840;48.892;15.312;2023-05-14T12:13:23;9.17;;;6.73;;
3647;SDS011;1840;48.892;15.312;2023-05-14T12:15:53;9.82;;;6.93;;
3647;SDS011;1840;48.892;15.312;2023-05-14T12:18:24;9.57;;;6.50;;
3647;SDS011;1840;48.892;15.312;2023-05-14T12:20:54;9.83;;;6.10;;
3647;SDS011;1840;48.892;15.312;2023-05-14T12:23:26;7.97;;;6.47;;
3647;SDS011;1840;48.892;15.312;2023-05-14T12:25:59;8.20;;;6.33;;
3647;SDS011;1840;48.892;15.312;2023-05-14T12:28:29;7.33;;;5.37;;
3647;SDS011;1840;48.892;15.312;2023-05-14T12:30:58;7.78;;;5.30;;
3647;SDS011;1840;48.892;15.312;2023-05-14T12:33:28;14.83;;;6.10;;
3647;SDS011;1840;48.892;15.312;2023-05-14T12:35:56;8.93;;;6.27;;
3647;SDS011;1840;48.892;15.312;2023-05-14T12:38:39;7.60;;;5.50;;
3647;SDS011;1840;48.892;15.312;2023-05-14T12:41:07;8.57;;;6.23;;
3647;SDS011;1840;48.892;15.312;2023-05-14T12:43:35;7.07;;;5.60;;
3647;SDS011;1840;48.892;15.312;2023-05-14T12:46:03;9.87;;;6.20;;
3647;SDS011;1840;48.892;15.312;2023-05-14T12:48:33;7.03;;;5.23;;
3647;SDS011;1840;48.892;15.312;2023-05-14T12:51:01;6.27;;;5.23;;
3647;SDS011;1840;48.892;15.312;2023-05-14T12:53:29;6.47;;;5.03;;
3647;SDS011;1840;48.892;15.312;2023-05-14T12:55:57;6.47;;;5.20;;
3647;SDS011;1840;48.892;15.312;2023-05-14T12:58:25;9.03;;;5.43;;
3647;SDS011;1840;48.892;15.312;2023-05-14T13:00:53;6.40;;;5.43;;
3647;SDS011;1840;48.892;15.312;2023-05-14T13:03:21;7.53;;;5.03;;
3647;SDS011;1840;48.892;15.312;2023-05-14T13:05:51;6.40;;;4.90;;
3647;SDS011;1840;48.892;15.312;2023-05-14T13:08:20;8.40;;;5.30;;
3647;SDS011;1840;48.892;15.312;2023-05-14T13:10:50;6.40;;;4.80;;
3647;SDS011;1840;48.892;15.312;2023-05-14T13:13:18;8.20;;;5.13;;
3647;SDS011;1840;48.892;15.312;2023-05-14T13:15:46;6.30;;;5.20;;
3647;SDS011;1840;48.892;15.312;2023-05-14T13:18:17;5.82;;;4.80;;
3647;SDS011;1840;48.892;15.312;2023-05-14T13:20:45;6.03;;;4.70;;
3647;SDS011;1840;48.892;15.312;2023-05-14T13:23:15;5.80;;;4.50;;
3647;SDS011;1840;48.892;15.312;2023-05-14T13:25:43;10.70;;;5.07;;
3647;SDS011;1840;48.892;15.312;2023-05-14T13:28:14;7.93;;;5.20;;
3647;SDS011;1840;48.892;15.312;2023-05-14T13:30:43;9.20;;;6.43;;
3647;SDS011;1840;48.892;15.312;2023-05-14T13:33:32;7.67;;;5.60;;
3647;SDS011;1840;48.892;15.312;2023-05-14T13:36:01;12.23;;;6.73;;
3647;SDS011;1840;48.892;15.312;2023-05-14T13:38:30;9.77;;;6.00;;
3647;SDS011;1840;48.892;15.312;2023-05-14T13:40:58;8.77;;;6.90;;
3647;SDS011;1840;48.892;15.312;2023-05-14T13:43:28;7.43;;;6.20;;
3647;SDS011;1840;48.892;15.312;2023-05-14T13:45:57;8.70;;;6.93;;
3647;SDS011;1840;48.892;15.312;2023-05-14T13:48:25;23.63;;;13.23;;
3647;SDS011;1840;48.892;15.312;2023-05-14T13:50:53;12.32;;;7.53;;
3647;SDS011;1840;48.892;15.312;2023-05-14T13:53:22;7.23;;;5.33;;
3647;SDS011;1840;48.892;15.312;2023-05-14T13:55:52;8.90;;;5.60;;
3647;SDS011;1840;48.892;15.312;2023-05-14T13:58:23;6.57;;;5.53;;
3647;SDS011;1840;48.892;15.312;2023-05-14T14:00:52;8.00;;;5.90;;
3647;SDS011;1840;48.892;15.312;2023-05-14T14:03:20;8.07;;;5.93;;
3647;SDS011;1840;48.892;15.312;2023-05-14T14:05:49;16.33;;;11.40;;
3647;SDS011;1840;48.892;15.312;2023-05-14T14:08:17;16.48;;;11.82;;
3647;SDS011;1840;48.892;15.312;2023-05-14T14:10:50;8.98;;;7.10;;
3647;SDS011;1840;48.892;15.312;2023-05-14T14:13:21;8.47;;;6.23;;
3647;SDS011;1840;48.892;15.312;2023-05-14T14:15:49;12.13;;;6.27;;
3647;SDS011;1840;48.892;15.312;2023-05-14T14:18:18;20.20;;;13.60;;
3647;SDS011;1840;48.892;15.312;2023-05-14T14:20:46;8.70;;;6.30;;
3647;SDS011;1840;48.892;15.312;2023-05-14T14:23:14;5.93;;;4.67;;
3647;SDS011;1840;48.892;15.312;2023-05-14T14:25:42;9.20;;;6.10;;
3647;SDS011;1840;48.892;15.312;2023-05-14T14:28:10;7.57;;;5.33;;
3647;SDS011;1840;48.892;15.312;2023-05-14T14:30:39;11.93;;;6.43;;
3647;SDS011;1840;48.892;15.312;2023-05-14T14:33:07;6.60;;;5.37;;
3647;SDS011;1840;48.892;15.312;2023-05-14T14:35:35;11.63;;;6.40;;
3647;SDS011;1840;48.892;15.312;2023-05-14T14:38:03;8.53;;;5.47;;
3647;SDS011;1840;48.892;15.312;2023-05-14T14:40:31;8.07;;;5.83;;
3647;SDS011;1840;48.892;15.312;2023-05-14T14:43:00;7.72;;;5.65;;
3647;SDS011;1840;48.892;15.312;2023-05-14T14:45:28;8.37;;;6.10;;
3647;SDS011;1840;48.892;15.312;2023-05-14T14:50:50;7.90;;;5.93;;
3647;SDS011;1840;48.892;15.312;2023-05-14T14:53:19;7.80;;;5.80;;
3647;SDS011;1840;48.892;15.312;2023-05-14T14:55:47;7.80;;;6.22;;
3647;SDS011;1840;48.892;15.312;2023-05-14T15:00:44;7.10;;;5.93;;
3647;SDS011;1840;48.892;15.312;2023-05-14T15:03:13;12.30;;;6.80;;
3647;SDS011;1840;48.892;15.312;2023-05-14T15:05:43;8.10;;;6.57;;